Time;durP1;ratioP1;P1;durP2;ratioP2;P2;SDS_P1;SDS_P2;PMS_P1;PMS_P2;Temp;Humidity;BMP_temperature;BMP_pressure;BME280_temperature;BME280_humidity;BME280_pressure;Samples;Min_cycle;Max_cycle;Signal;HPM_P1;HPM_P2
2022/11/28 00:00:30;;;;;;;7.63;5.93;;;;;;;9.17;68.13;95173.22;4990143;28;20630;-83
2022/11/28 00:02:56;;;;;;;5.43;4.93;;;;;;;9.16;68.09;95184.38;4989777;28;20192;-84
2022/11/28 00:05:25;;;;;;;6.90;5.27;;;;;;;9.15;68.09;95186.06;4991456;28;20193;-83
2022/11/28 00:07:52;;;;;;;7.97;5.80;;;;;;;9.07;68.07;95173.13;4972027;28;20204;-86
2022/11/28 00:10:19;;;;;;;6.87;5.07;;;;;;;9.14;68.11;95181.09;4971343;28;20249;-88
2022/11/28 00:12:45;;;;;;;6.07;5.47;;;;;;;9.14;68.10;95188.75;4976249;28;20193;-85
2022/11/28 00:15:13;;;;;;;7.53;5.70;;;;;;;9.13;68.08;95185.41;4996389;28;20550;-85
2022/11/28 00:17:40;;;;;;;7.13;5.80;;;;;;;9.10;68.13;95177.16;5007460;28;20234;-87
2022/11/28 00:20:08;;;;;;;7.40;5.80;;;;;;;9.08;68.03;95179.03;5010931;28;20192;-86
2022/11/28 00:22:36;;;;;;;7.30;5.53;;;;;;;9.11;68.14;95178.78;4985990;28;20205;-87
2022/11/28 00:25:03;;;;;;;6.17;5.37;;;;;;;9.11;68.19;95179.63;4971238;28;20194;-81
2022/11/28 00:27:29;;;;;;;7.23;5.70;;;;;;;9.07;68.17;95175.66;4989112;28;20197;-80
2022/11/28 00:29:56;;;;;;;6.33;5.63;;;;;;;9.11;67.89;95184.72;4993686;28;20192;-84
2022/11/28 00:32:23;;;;;;;5.93;5.17;;;;;;;9.11;68.01;95182.16;4992443;28;20204;-88
2022/11/28 00:34:50;;;;;;;7.73;5.00;;;;;;;9.10;68.25;95177.97;4999999;28;20193;-84
2022/11/28 00:37:17;;;;;;;7.37;5.73;;;;;;;9.11;68.15;95178.78;4991112;28;20227;-85
2022/11/28 00:39:45;;;;;;;7.83;6.07;;;;;;;9.13;68.11;95182.84;4992328;28;20227;-85
2022/11/28 00:42:12;;;;;;;6.73;6.03;;;;;;;9.09;68.11;95170.44;4998270;28;20204;-83
2022/11/28 00:44:39;;;;;;;7.97;5.57;;;;;;;9.02;68.03;95157.31;5013045;28;20188;-83
2022/11/28 00:47:05;;;;;;;5.93;5.17;;;;;;;9.14;68.10;95181.91;5013426;28;20246;-86
2022/11/28 00:49:32;;;;;;;6.60;5.60;;;;;;;9.10;67.93;95174.59;5012697;28;20281;-83
2022/11/28 00:51:59;;;;;;;6.93;5.27;;;;;;;9.14;68.06;95178.56;5000633;28;20205;-82
2022/11/28 00:54:26;;;;;;;6.13;4.80;;;;;;;9.03;68.31;95166.63;5001071;28;20207;-81
2022/11/28 00:56:54;;;;;;;7.23;5.40;;;;;;;9.14;68.16;95176.81;4994362;28;20196;-81
2022/11/28 00:59:21;;;;;;;6.17;5.40;;;;;;;9.15;68.16;95175.88;4994940;28;20213;-79
2022/11/28 01:01:48;;;;;;;8.00;5.00;;;;;;;9.07;68.13;95165.47;4991232;28;20616;-81
2022/11/28 01:04:17;;;;;;;6.50;5.00;;;;;;;8.88;68.14;95135.41;4992470;28;20684;-82
2022/11/28 01:06:46;;;;;;;5.80;5.00;;;;;;;9.12;68.14;95176.13;4994666;28;20267;-84
2022/11/28 01:09:15;;;;;;;5.93;5.03;;;;;;;9.11;68.00;95176.22;4993658;28;20186;-83
2022/11/28 01:11:43;;;;;;;5.97;5.03;;;;;;;9.10;68.12;95175.41;4993180;28;20201;-83
2022/11/28 01:14:13;;;;;;;5.63;5.10;;;;;;;9.10;68.17;95175.41;4992242;28;20192;-82
2022/11/28 01:16:40;;;;;;;6.60;4.47;;;;;;;9.06;68.10;95166.38;4992433;28;20197;-81
2022/11/28 01:19:07;;;;;;;5.87;4.80;;;;;;;9.09;68.08;95167.88;4991629;28;20224;-83
2022/11/28 01:21:34;;;;;;;5.13;4.63;;;;;;;9.09;68.20;95173.00;4991879;28;20181;-83
2022/11/28 01:24:01;;;;;;;5.60;4.50;;;;;;;8.63;68.02;95095.66;4995260;28;20192;-83
2022/11/28 01:26:30;;;;;;;5.20;4.70;;;;;;;9.07;68.31;95169.72;5008348;28;20300;-83
2022/11/28 01:28:58;;;;;;;4.37;3.97;;;;;;;8.86;68.00;95137.28;5004376;28;20193;-84
2022/11/28 01:31:28;;;;;;;5.47;4.43;;;;;;;9.06;68.16;95166.38;4995937;28;20193;-84
2022/11/28 01:33:56;;;;;;;5.00;4.43;;;;;;;9.04;67.97;95165.69;4991398;28;20201;-82
2022/11/28 01:36:24;;;;;;;5.17;4.23;;;;;;;9.04;68.20;95169.06;4991558;28;20219;-81
2022/11/28 01:38:51;;;;;;;6.03;4.23;;;;;;;9.03;67.97;95153.88;4978134;28;20670;-83
2022/11/28 01:41:21;;;;;;;5.70;4.80;;;;;;;8.86;68.15;95134.75;4988677;28;20193;-83
2022/11/28 01:44:03;;;;;;;4.53;4.13;;;;;;;9.03;68.17;95157.22;4993676;28;20541;-84
2022/11/28 01:46:35;;;;;;;7.60;4.57;;;;;;;9.03;68.12;95159.78;4993395;28;20591;-80
2022/11/28 01:49:07;;;;;;;4.30;3.90;;;;;;;9.01;68.06;95151.41;4993089;28;20222;-79
2022/11/28 01:51:35;;;;;;;5.20;3.77;;;;;;;9.04;68.21;95152.94;4993145;28;20208;-81
2022/11/28 01:54:03;;;;;;;5.10;4.60;;;;;;;9.02;68.05;95147.97;4993812;28;20189;-82
2022/11/28 01:56:38;;;;;;;5.10;4.40;;;;;;;9.02;68.15;95149.66;4993509;28;20220;-78
2022/11/28 01:59:10;;;;;;;4.33;3.93;;;;;;;9.01;68.15;95148.06;4993043;28;20227;-79
2022/11/28 02:01:39;;;;;;;4.53;4.07;;;;;;;9.00;68.04;95154.09;4993321;28;20188;-82
2022/11/28 02:04:06;;;;;;;4.47;4.07;;;;;;;8.97;68.05;95144.13;4993075;28;20602;-78
2022/11/28 02:06:34;;;;;;;4.60;4.20;;;;;;;9.00;68.05;95149.00;4993712;28;20189;-84
2022/11/28 02:09:01;;;;;;;4.57;4.03;;;;;;;8.97;68.05;95146.66;4995228;28;20200;-80
2022/11/28 02:11:54;;;;;;;4.23;3.63;;;;;;;8.95;68.08;95139.13;4994286;28;20193;-90
2022/11/28 02:14:36;;;;;;;4.30;3.90;;;;;;;8.95;68.06;95145.97;4915105;29;20202;-89
2022/11/28 02:17:17;;;;;;;3.87;3.43;;;;;;;8.89;67.95;95131.13;4913739;29;20201;-77
2022/11/28 02:20:16;;;;;;;4.03;3.70;;;;;;;8.91;68.25;95135.19;4915283;29;20223;-86
2022/11/28 02:22:54;;;;;;;4.20;3.73;;;;;;;8.89;68.10;95137.03;4840274;29;20873;-82
2022/11/28 02:25:47;;;;;;;4.10;3.70;;;;;;;8.84;68.08;95125.56;4839905;29;20214;-81
2022/11/28 02:28:49;;;;;;;3.63;3.30;;;;;;;8.85;68.25;95130.56;4840251;29;20209;-81
2022/11/28 02:31:32;;;;;;;3.93;3.40;;;;;;;8.83;68.28;95137.50;4857930;29;20695;-88
2022/11/28 02:34:07;;;;;;;4.53;3.50;;;;;;;8.84;68.22;95128.94;4862653;29;20285;-82
2022/11/28 02:36:41;;;;;;;4.03;3.50;;;;;;;8.83;68.21;95139.25;4868246;29;20262;-88
2022/11/28 02:39:14;;;;;;;5.20;4.10;;;;;;;8.83;68.34;95134.16;4862998;29;20233;-83
2022/11/28 02:41:46;;;;;;;3.33;3.10;;;;;;;8.83;68.19;95137.50;4861435;29;20197;-90
2022/11/28 02:44:16;;;;;;;4.17;3.43;;;;;;;8.83;68.22;95136.72;4858940;29;20202;-90
2022/11/28 02:46:53;;;;;;;3.73;3.37;;;;;;;8.78;68.31;95129.41;4858514;29;20201;-87
2022/11/28 02:49:31;;;;;;;4.77;3.93;;;;;;;8.74;68.30;95120.38;4862428;29;20254;-89
2022/11/28 02:52:03;;;;;;;3.23;3.00;;;;;;;8.82;68.22;95135.09;4883468;29;20192;-83
2022/11/28 02:54:33;;;;;;;4.20;3.80;;;;;;;8.82;68.09;95135.91;4896120;29;20197;-88
2022/11/28 02:57:01;;;;;;;3.10;2.90;;;;;;;8.83;68.22;95134.97;4896062;29;20222;-83
2022/11/28 02:59:45;;;;;;;3.20;2.93;;;;;;;8.84;68.18;95135.78;4936509;28;20280;-80
2022/11/28 03:02:19;;;;;;;3.73;3.43;;;;;;;8.63;68.24;95105.06;4993969;28;20620;-87
2022/11/28 03:04:56;;;;;;;3.40;3.10;;;;;;;8.84;68.11;95133.22;4992045;28;20220;-82
2022/11/28 03:07:36;;;;;;;3.13;2.90;;;;;;;8.65;68.28;95111.66;4992193;28;20193;-77
2022/11/28 03:10:18;;;;;;;3.50;3.20;;;;;;;8.83;68.26;95134.16;4993031;28;20624;-84
2022/11/28 03:12:55;;;;;;;3.57;3.30;;;;;;;8.78;68.18;95131.97;4993416;28;20569;-84
2022/11/28 03:15:30;;;;;;;3.43;3.23;;;;;;;8.76;68.23;95134.63;4997592;28;20181;-80
2022/11/28 03:18:07;;;;;;;3.17;2.90;;;;;;;8.79;68.18;95136.94;4994678;28;20560;-77
2022/11/28 03:20:45;;;;;;;3.67;3.33;;;;;;;8.79;68.22;95143.78;4998024;28;20229;-76
2022/11/28 03:23:16;;;;;;;3.40;3.10;;;;;;;8.79;68.20;95138.66;5009843;28;20185;-82
2022/11/28 03:25:55;;;;;;;3.10;2.90;;;;;;;8.78;68.12;95142.97;5011735;28;20231;-78
2022/11/28 03:28:26;;;;;;;3.00;2.73;;;;;;;8.77;68.28;95138.81;5006855;28;20210;-77
2022/11/28 03:31:00;;;;;;;2.90;2.70;;;;;;;8.77;68.34;95138.81;5007240;28;20280;-76
2022/11/28 03:33:30;;;;;;;3.50;3.20;;;;;;;8.76;68.36;95137.19;5009651;28;20189;-76
2022/11/28 03:36:03;;;;;;;3.10;2.80;;;;;;;8.77;68.15;95146.44;5002176;28;20197;-77
2022/11/28 03:38:36;;;;;;;3.00;2.70;;;;;;;8.76;68.29;95137.19;5008161;28;20192;-76
2022/11/28 03:41:08;;;;;;;2.80;2.50;;;;;;;8.76;68.31;95137.19;4989099;28;20209;-78
2022/11/28 03:43:44;;;;;;;3.07;2.77;;;;;;;8.73;68.30;95134.84;4994911;28;20186;-80
2022/11/28 03:46:15;;;;;;;3.53;3.20;;;;;;;8.75;68.32;95135.53;4993483;28;20176;-83
2022/11/28 03:48:46;;;;;;;3.10;2.90;;;;;;;8.76;68.30;95133.78;4992615;28;20194;-81
2022/11/28 03:51:18;;;;;;;2.70;2.50;;;;;;;8.76;68.20;95136.34;4994525;28;20675;-83
2022/11/28 03:53:51;;;;;;;2.97;2.67;;;;;;;8.77;68.24;95143.09;4993606;28;20283;-83
2022/11/28 03:56:22;;;;;;;2.63;2.43;;;;;;;8.76;68.35;95136.34;4992524;28;20225;-82
2022/11/28 03:58:55;;;;;;;3.00;2.80;;;;;;;8.75;68.30;95134.72;4990712;28;20821;-81
2022/11/28 04:01:30;;;;;;;3.23;3.00;;;;;;;8.74;68.29;95128.00;4990818;28;20200;-84
2022/11/28 04:04:06;;;;;;;2.60;2.40;;;;;;;8.73;68.30;95124.66;4991440;28;20184;-83
2022/11/28 04:06:43;;;;;;;2.90;2.70;;;;;;;8.75;68.39;95129.63;4992192;28;20193;-83
2022/11/28 04:09:15;;;;;;;2.80;2.60;;;;;;;8.75;68.38;95125.34;4992189;28;20207;-85
2022/11/28 04:11:47;;;;;;;2.37;2.27;;;;;;;8.69;68.21;95118.16;4992988;28;20637;-83
2022/11/28 04:14:22;;;;;;;3.13;2.93;;;;;;;8.74;68.32;95125.47;4991778;28;20204;-83
2022/11/28 04:16:54;;;;;;;2.80;2.60;;;;;;;8.76;68.27;95121.03;4991868;28;20635;-86
2022/11/28 04:19:29;;;;;;;2.97;2.67;;;;;;;8.72;68.25;95115.38;4991317;28;20218;-86
2022/11/28 04:22:03;;;;;;;2.50;2.30;;;;;;;8.66;68.21;95107.38;4974699;28;20185;-85
2022/11/28 04:24:34;;;;;;;3.13;2.87;;;;;;;8.77;68.39;95128.59;4990651;28;20200;-86
2022/11/28 04:27:08;;;;;;;2.40;2.20;;;;;;;8.77;68.45;95132.88;4990739;28;20248;-86
2022/11/28 04:29:39;;;;;;;2.60;2.40;;;;;;;8.77;68.30;95138.00;4990967;28;20703;-86
2022/11/28 04:32:08;;;;;;;2.80;2.60;;;;;;;8.76;68.44;95139.72;4991611;28;20192;-85
2022/11/28 04:34:36;;;;;;;4.87;2.80;;;;;;;8.54;68.38;95101.47;4989562;28;20193;-85
2022/11/28 04:37:10;;;;;;;5.33;2.77;;;;;;;8.70;68.27;95129.16;4993152;28;20662;-85
2022/11/28 04:39:38;;;;;;;2.37;2.17;;;;;;;8.71;68.44;95135.88;4993750;28;20204;-85
2022/11/28 04:42:10;;;;;;;2.73;2.53;;;;;;;8.71;68.21;95135.88;4996438;28;20248;-84
2022/11/28 04:44:42;;;;;;;3.70;2.30;;;;;;;8.75;68.21;95150.03;4993799;28;20216;-85
2022/11/28 04:47:10;;;;;;;2.50;2.30;;;;;;;8.67;68.27;95140.41;4995118;28;20197;-83
2022/11/28 04:49:38;;;;;;;2.37;2.17;;;;;;;8.73;68.55;95150.16;4995337;28;20201;-86
2022/11/28 04:52:12;;;;;;;2.67;2.47;;;;;;;8.74;68.33;95153.50;4994779;28;20189;-84
2022/11/28 04:54:45;;;;;;;2.00;1.90;;;;;;;8.47;68.32;95108.78;4999095;28;20181;-84
2022/11/28 04:57:17;;;;;;;2.00;1.90;;;;;;;8.74;68.42;95146.66;4998690;28;20671;-84
2022/11/28 04:59:45;;;;;;;2.53;2.33;;;;;;;8.70;68.15;95147.81;4993988;28;20223;-85
2022/11/28 05:02:14;;;;;;;2.27;2.17;;;;;;;8.71;68.29;95148.63;4994151;28;20185;-82
2022/11/28 05:04:43;;;;;;;2.33;2.20;;;;;;;8.75;68.42;95155.94;4993858;28;20207;-84
2022/11/28 05:07:12;;;;;;;2.50;2.30;;;;;;;8.33;68.48;95080.09;4993841;28;20661;-82
2022/11/28 05:09:38;;;;;;;2.50;2.30;;;;;;;8.75;68.38;95157.69;4993487;28;20342;-84
2022/11/28 05:12:06;;;;;;;2.30;2.20;;;;;;;8.68;68.46;95141.22;4994606;28;20193;-83
2022/11/28 05:14:33;;;;;;;2.30;2.20;;;;;;;8.72;68.37;95152.78;4993141;28;20611;-83
2022/11/28 05:17:01;;;;;;;2.63;2.43;;;;;;;8.77;68.41;95158.38;4993922;28;20272;-83
2022/11/28 05:19:27;;;;;;;2.10;2.00;;;;;;;8.76;68.32;95155.03;4997999;28;20272;-83
2022/11/28 05:21:54;;;;;;;2.37;2.17;;;;;;;8.48;68.57;95107.84;5008584;28;20228;-82
2022/11/28 05:24:22;;;;;;;2.20;2.10;;;;;;;8.75;68.45;95150.84;4999068;28;20561;-83
2022/11/28 05:26:49;;;;;;;2.53;2.40;;;;;;;8.92;89.86;95133.47;4993703;28;20715;-83
2022/11/28 05:29:17;;;;;;;3.40;1.80;;;;;;;9.58;100.00;95147.03;4993548;28;20189;-81
2022/11/28 05:31:43;;;;;;;5.43;2.37;;;;;;;10.02;100.00;95145.28;4993099;28;20220;-82
2022/11/28 05:34:10;;;;;;;3.40;2.10;;;;;;;10.21;98.13;95142.84;4993698;28;20193;-82
2022/11/28 05:36:37;;;;;;;1.90;1.80;;;;;;;10.08;94.63;95121.78;4993048;28;20192;-82
2022/11/28 05:39:04;;;;;;;6.63;2.30;;;;;;;10.24;91.32;95136.69;4995910;28;20189;-81
2022/11/28 05:41:33;;;;;;;3.37;1.80;;;;;;;10.21;88.64;95139.47;4992585;28;20216;-79
2022/11/28 05:44:00;;;;;;;2.67;1.80;;;;;;;10.15;86.15;95151.00;4994333;28;20197;-81
2022/11/28 05:46:29;;;;;;;3.70;2.07;;;;;;;10.08;84.39;95143.97;4993920;28;20215;-81
2022/11/28 05:48:57;;;;;;;2.00;1.90;;;;;;;10.01;82.86;95147.00;4994686;28;20716;-79
2022/11/28 05:51:24;;;;;;;2.97;2.00;;;;;;;9.92;81.86;95145.16;4992356;28;20193;-81
2022/11/28 05:53:51;;;;;;;2.10;2.00;;;;;;;9.80;81.20;95136.78;4993500;28;20197;-80
2022/11/28 05:56:21;;;;;;;2.27;2.10;;;;;;;9.61;80.62;95116.16;4993237;28;20208;-84
2022/11/28 05:58:50;;;;;;;2.93;2.10;;;;;;;9.75;80.19;95141.41;4993958;28;20221;-80
2022/11/28 06:01:19;;;;;;;2.30;2.00;;;;;;;9.71;79.67;95145.13;4993197;28;20224;-84
2022/11/28 06:03:47;;;;;;;2.47;2.10;;;;;;;9.65;79.34;95144.81;4993097;28;20184;-82
2022/11/28 06:06:15;;;;;;;1.93;1.83;;;;;;;9.59;78.91;95142.75;4992536;28;20193;-83
2022/11/28 06:08:42;;;;;;;1.97;1.87;;;;;;;9.54;78.52;95138.81;4993703;28;20193;-83
2022/11/28 06:11:09;;;;;;;2.20;2.00;;;;;;;9.42;78.49;95127.00;4993325;28;20192;-82
2022/11/28 06:13:37;;;;;;;2.43;2.33;;;;;;;9.48;78.23;95144.38;4993510;28;20606;-82
2022/11/28 06:16:09;;;;;;;2.27;2.07;;;;;;;9.40;78.29;95130.59;4993495;28;20200;-81
2022/11/28 06:18:36;;;;;;;2.00;1.90;;;;;;;9.42;78.16;95139.78;4993730;28;20189;-83
2022/11/28 06:21:15;;;;;;;2.30;2.10;;;;;;;9.03;77.99;95080.69;4995220;28;20213;-83
2022/11/28 06:23:44;;;;;;;2.40;2.20;;;;;;;9.40;77.96;95140.81;4996528;28;20723;-86
2022/11/28 06:26:14;;;;;;;2.60;2.40;;;;;;;9.19;77.72;95113.47;4992051;28;20281;-89
2022/11/28 06:28:41;;;;;;;2.50;2.30;;;;;;;9.33;77.57;95135.41;4994483;28;20197;-87
2022/11/28 06:31:12;;;;;;;2.73;2.53;;;;;;;9.39;77.25;95137.47;4999807;28;20224;-81
2022/11/28 06:33:39;;;;;;;2.70;2.50;;;;;;;9.42;77.08;95141.53;4994462;28;20252;-85
2022/11/28 06:36:07;;;;;;;3.00;2.80;;;;;;;9.36;76.75;95124.91;4997151;28;20287;-84
2022/11/28 06:38:36;;;;;;;2.77;2.33;;;;;;;9.29;76.54;95113.59;4994112;28;20191;-84
2022/11/28 06:41:05;;;;;;;3.53;2.60;;;;;;;9.47;76.01;95130.00;4996823;28;20237;-84
2022/11/28 06:43:33;;;;;;;2.43;2.23;;;;;;;9.49;75.84;95135.78;4995070;28;20213;-89
2022/11/28 06:46:00;;;;;;;3.20;2.90;;;;;;;9.51;75.80;95126.28;4995391;28;20309;-84
2022/11/28 06:48:28;;;;;;;2.73;2.53;;;;;;;9.53;75.28;95131.25;4998260;28;20648;-83
2022/11/28 06:51:02;;;;;;;2.70;2.50;;;;;;;9.55;74.87;95127.66;4998943;28;20188;-81
2022/11/28 06:53:29;;;;;;;2.80;2.60;;;;;;;9.58;74.65;95128.34;5003737;28;20201;-82
2022/11/28 06:55:56;;;;;;;2.80;2.60;;;;;;;9.59;74.44;95128.25;4997850;28;20203;-87
2022/11/28 06:58:23;;;;;;;2.80;2.60;;;;;;;9.61;74.12;95126.38;4994823;28;20181;-90
2022/11/28 07:00:50;;;;;;;2.80;2.60;;;;;;;9.62;73.94;95124.63;4993322;28;20225;-89
2022/11/28 07:03:17;;;;;;;3.10;2.80;;;;;;;9.64;73.80;95130.44;4996264;28;20188;-88
2022/11/28 07:05:45;;;;;;;2.70;2.50;;;;;;;9.58;73.64;95124.03;4995974;28;20597;-86
2022/11/28 07:08:12;;;;;;;2.80;2.43;;;;;;;9.63;73.66;95124.53;4996050;28;20189;-86
2022/11/28 07:10:39;;;;;;;2.97;2.77;;;;;;;9.68;73.17;95134.38;4996287;28;20569;-85
2022/11/28 07:13:07;;;;;;;2.70;2.50;;;;;;;9.67;73.05;95131.00;4998124;28;20197;-87
2022/11/28 07:15:34;;;;;;;2.77;2.57;;;;;;;9.67;72.84;95128.47;4998015;28;20193;-86
2022/11/28 07:18:01;;;;;;;3.97;3.37;;;;;;;9.71;72.73;95134.09;4995692;28;20197;-87
2022/11/28 07:20:28;;;;;;;2.90;2.70;;;;;;;9.72;72.44;95134.00;4993752;28;20615;-86
2022/11/28 07:22:56;;;;;;;3.20;2.87;;;;;;;9.73;72.44;95127.16;4992894;28;20208;-86
2022/11/28 07:25:23;;;;;;;3.47;3.17;;;;;;;9.76;72.20;95129.47;4993251;28;20249;-89
2022/11/28 07:27:49;;;;;;;3.43;3.13;;;;;;;9.79;72.05;95126.66;4965208;28;20665;-87
2022/11/28 07:30:18;;;;;;;3.50;3.20;;;;;;;9.83;71.85;95129.78;4973095;28;20198;-87
2022/11/28 07:32:45;;;;;;;3.33;3.03;;;;;;;9.86;71.73;95132.91;4963847;28;20202;-86
2022/11/28 07:35:12;;;;;;;3.07;2.77;;;;;;;9.91;71.54;95123.13;4972944;28;20325;-87
2022/11/28 07:37:39;;;;;;;3.53;3.23;;;;;;;9.96;71.38;95133.78;4968303;28;20198;-83
2022/11/28 07:40:08;;;;;;;3.87;3.57;;;;;;;10.05;71.18;95119.44;4964427;28;20220;-88
2022/11/28 07:42:35;;;;;;;3.27;2.97;;;;;;;10.13;70.92;95123.94;4973284;28;20197;-87
2022/11/28 07:45:02;;;;;;;4.63;3.70;;;;;;;10.25;70.67;95120.44;4973982;28;20201;-87
2022/11/28 07:47:29;;;;;;;3.47;3.13;;;;;;;10.35;70.26;95111.06;4973063;28;20645;-86
2022/11/28 07:49:56;;;;;;;4.07;3.67;;;;;;;10.54;70.18;95116.31;4972179;28;20196;-83
2022/11/28 07:52:23;;;;;;;4.90;3.30;;;;;;;10.76;69.27;95120.44;4972579;28;20229;-86
2022/11/28 07:54:50;;;;;;;3.40;3.10;;;;;;;10.77;69.11;95095.66;4969038;28;20210;-83
2022/11/28 07:57:18;;;;;;;3.40;2.50;;;;;;;10.92;87.01;95055.16;4985438;28;20197;-87
2022/11/28 07:59:46;;;;;;;4.10;3.13;;;;;;;11.72;84.93;95115.69;4983695;28;20197;-91
2022/11/28 08:02:22;;;;;;;3.43;2.70;;;;;;;11.92;81.08;95117.34;4974056;28;20232;-90
2022/11/28 08:04:49;;;;;;;6.10;3.50;;;;;;;11.83;79.17;95086.56;4967496;28;20676;-89
2022/11/28 08:07:15;;;;;;;4.00;3.50;;;;;;;12.09;78.56;95107.31;4972810;28;20677;-87
2022/11/28 08:09:42;;;;;;;4.17;3.57;;;;;;;12.11;77.82;95110.56;4974068;28;20189;-85
2022/11/28 08:12:09;;;;;;;4.17;3.43;;;;;;;12.01;77.04;95097.78;4963729;28;20200;-86
2022/11/28 08:14:37;;;;;;;4.17;3.77;;;;;;;12.09;76.84;95107.31;4972592;28;20587;-89
2022/11/28 08:17:04;;;;;;;4.33;3.57;;;;;;;12.05;76.24;95114.50;4960526;28;20693;-88
2022/11/28 08:19:31;;;;;;;4.43;4.03;;;;;;;12.01;76.24;95118.28;4970732;28;20189;-86
2022/11/28 08:21:58;;;;;;;4.10;3.70;;;;;;;11.93;75.77;95102.78;4971574;28;20232;-85
2022/11/28 08:24:25;;;;;;;6.77;3.90;;;;;;;11.97;75.50;95115.19;4972373;28;20197;-90
2022/11/28 08:26:52;;;;;;;5.80;4.43;;;;;;;11.98;75.33;95119.34;4986993;28;20233;-88
2022/11/28 08:29:18;;;;;;;5.13;4.63;;;;;;;12.01;74.72;95115.72;4992184;28;20201;-90
2022/11/28 08:31:47;;;;;;;5.43;4.17;;;;;;;12.04;74.30;95110.31;4995642;28;20672;-83
2022/11/28 08:34:14;;;;;;;4.93;4.20;;;;;;;11.97;73.79;95092.09;4995437;28;20189;-88
2022/11/28 08:36:42;;;;;;;4.97;4.20;;;;;;;11.89;73.67;95070.66;4995079;28;20583;-87
2022/11/28 08:39:10;;;;;;;6.40;4.53;;;;;;;12.07;72.99;95096.41;4991253;28;20197;-88
2022/11/28 08:41:37;;;;;;;5.07;4.57;;;;;;;12.17;72.67;95099.75;4992849;28;20713;-90
2022/11/28 08:44:04;;;;;;;5.67;4.70;;;;;;;12.21;72.13;95088.28;4998413;28;20256;-86
2022/11/28 08:46:31;;;;;;;5.43;4.37;;;;;;;12.21;71.49;95086.53;4993877;28;20212;-85
2022/11/28 08:49:00;;;;;;;4.50;4.10;;;;;;;12.34;71.24;95095.69;5000872;28;20189;-86
2022/11/28 08:51:28;;;;;;;4.60;3.83;;;;;;;12.45;70.73;95096.34;5006610;28;20189;-88
2022/11/28 08:53:58;;;;;;;4.90;4.40;;;;;;;12.51;70.40;95102.66;5012211;28;20213;-81
2022/11/28 08:56:26;;;;;;;4.50;4.10;;;;;;;12.54;70.24;95099.81;5006685;28;20221;-88
2022/11/28 08:58:53;;;;;;;4.70;4.23;;;;;;;12.52;69.96;95084.59;5003785;28;20189;-86
2022/11/28 09:01:22;;;;;;;6.27;4.43;;;;;;;12.49;70.02;95089.19;5000852;28;20243;-90
2022/11/28 09:03:49;;;;;;;4.13;3.73;;;;;;;12.33;69.73;95066.66;5005164;28;20181;-81
2022/11/28 09:06:19;;;;;;;5.70;4.20;;;;;;;12.42;69.80;95077.84;5013267;28;20197;-80
2022/11/28 09:08:48;;;;;;;4.70;4.30;;;;;;;12.30;69.53;95060.09;5014460;28;20208;-80
2022/11/28 09:11:18;;;;;;;4.77;4.10;;;;;;;12.40;69.23;95065.19;5008515;28;20647;-79
2022/11/28 09:13:45;;;;;;;4.97;3.90;;;;;;;12.37;68.91;95070.56;5007424;28;20200;-80
2022/11/28 09:16:13;;;;;;;4.20;3.80;;;;;;;12.39;68.88;95066.13;4993750;28;20668;-88
2022/11/28 09:18:40;;;;;;;5.63;4.40;;;;;;;12.42;68.42;95059.91;4993584;28;20208;-83
2022/11/28 09:21:09;;;;;;;4.53;3.80;;;;;;;12.43;68.32;95057.19;4992732;28;20232;-86
2022/11/28 09:23:39;;;;;;;5.67;4.30;;;;;;;12.45;68.02;95055.31;4991764;28;20201;-87
2022/11/28 09:26:09;;;;;;;5.47;4.67;;;;;;;12.46;67.86;95056.09;4990890;28;20236;-86
2022/11/28 09:28:35;;;;;;;4.77;3.97;;;;;;;12.47;67.78;95050.81;4994137;28;20197;-85
2022/11/28 09:31:04;;;;;;;4.90;4.40;;;;;;;12.36;67.98;95030.50;4993786;28;20197;-81
2022/11/28 09:33:31;;;;;;;4.93;4.20;;;;;;;12.48;67.63;95036.28;4997512;28;20744;-83
2022/11/28 09:35:58;;;;;;;4.40;4.00;;;;;;;12.57;67.39;95045.69;5004514;28;20204;-83
2022/11/28 09:38:25;;;;;;;4.73;4.33;;;;;;;12.66;67.34;95041.47;5006047;28;20189;-86
2022/11/28 09:40:54;;;;;;;5.17;4.43;;;;;;;12.75;67.03;95040.59;4999281;28;20217;-81
2022/11/28 09:43:28;;;;;;;4.60;4.00;;;;;;;12.84;66.60;95029.47;4995636;28;20189;-87
2022/11/28 09:45:56;;;;;;;4.93;4.43;;;;;;;12.96;66.49;95017.25;5006123;28;20200;-80
2022/11/28 09:48:27;;;;;;;6.10;3.93;;;;;;;13.05;66.16;95014.63;5004868;28;20228;-88
2022/11/28 09:50:58;;;;;;;4.40;4.00;;;;;;;13.13;66.02;95018.25;5001228;28;20723;-91
2022/11/28 09:53:30;;;;;;;4.43;3.80;;;;;;;13.02;65.80;94994.38;5009579;28;20181;-85
2022/11/28 09:56:04;;;;;;;3.43;3.13;;;;;;;13.20;65.79;95014.94;5002754;28;20197;-81
2022/11/28 09:58:39;;;;;;;4.00;3.60;;;;;;;13.26;65.26;95009.25;4995123;28;20238;-84
2022/11/28 10:01:16;;;;;;;4.07;3.63;;;;;;;13.29;65.24;94998.66;4990544;28;20267;-86
2022/11/28 10:03:49;;;;;;;4.57;3.63;;;;;;;13.49;64.86;95012.19;4994291;28;20235;-84
2022/11/28 10:06:23;;;;;;;3.50;3.20;;;;;;;13.62;64.40;95011.00;4993747;28;20585;-81
2022/11/28 10:09:22;;;;;;;3.90;3.53;;;;;;;13.75;63.93;95016.56;4991916;28;20208;-82
2022/11/28 10:12:05;;;;;;;4.97;3.07;;;;;;;13.91;63.66;95008.97;4990948;28;20181;-84
2022/11/28 10:15:08;;;;;;;3.60;3.10;;;;;;;14.08;63.13;95006.53;4992999;28;20209;-80
2022/11/28 10:17:49;;;;;;;3.53;3.23;;;;;;;14.09;62.74;94985.78;4979641;28;20193;-84
2022/11/28 10:20:21;;;;;;;3.27;3.00;;;;;;;14.36;62.54;95002.81;4993527;28;20667;-82
2022/11/28 10:22:51;;;;;;;3.77;3.10;;;;;;;14.46;62.39;95000.94;4993233;28;20604;-87
2022/11/28 10:25:22;;;;;;;2.90;2.70;;;;;;;14.22;62.02;94959.66;4992413;28;20201;-87
2022/11/28 10:27:51;;;;;;;3.20;2.90;;;;;;;14.30;62.04;94973.38;4990095;28;20300;-86
2022/11/28 10:30:23;;;;;;;3.73;3.20;;;;;;;14.31;62.16;94980.13;4990406;28;20201;-85
2022/11/28 10:33:04;;;;;;;3.83;2.90;;;;;;;14.19;62.15;94971.06;4989970;28;20196;-84
2022/11/28 10:35:39;;;;;;;3.03;2.73;;;;;;;14.05;62.06;94963.91;4992020;28;20201;-83
2022/11/28 10:38:11;;;;;;;3.27;3.00;;;;;;;13.89;62.03;94951.75;4991651;28;20191;-86
2022/11/28 10:40:47;;;;;;;6.93;2.70;;;;;;;14.03;61.82;94976.09;4991388;28;20196;-85
2022/11/28 10:43:27;;;;;;;3.00;2.40;;;;;;;13.95;61.70;94958.88;4991614;28;20185;-81
2022/11/28 10:46:05;;;;;;;4.70;2.80;;;;;;;13.81;61.42;94937.06;4989053;28;20197;-83
2022/11/28 10:48:42;;;;;;;2.50;2.40;;;;;;;13.99;61.36;94970.47;4991419;28;20204;-89
2022/11/28 10:51:24;;;;;;;2.93;2.73;;;;;;;13.92;61.16;94945.50;4984689;28;20281;-85
2022/11/28 10:54:03;;;;;;;3.40;2.87;;;;;;;13.94;61.34;94951.28;4991912;28;20204;-86
2022/11/28 10:56:41;;;;;;;3.07;2.80;;;;;;;13.98;61.43;94960.31;4994167;28;20626;-84
2022/11/28 10:59:21;;;;;;;2.53;2.33;;;;;;;13.95;61.25;94964.03;4991375;28;20189;-81
2022/11/28 11:01:49;;;;;;;3.03;2.77;;;;;;;13.84;61.47;94953.97;4992401;28;20220;-82
2022/11/28 11:04:19;;;;;;;3.50;3.20;;;;;;;13.80;61.45;94955.22;4992616;28;20280;-86
2022/11/28 11:07:01;;;;;;;3.10;2.80;;;;;;;13.73;61.58;94964.50;4992064;28;20212;-85
2022/11/28 11:09:28;;;;;;;2.80;2.60;;;;;;;13.64;61.57;94952.53;5001074;28;20177;-81
2022/11/28 11:12:00;;;;;;;3.10;2.80;;;;;;;13.58;61.51;94959.09;4998116;28;20201;-86
2022/11/28 11:14:38;;;;;;;5.50;3.23;;;;;;;13.53;61.44;94951.84;4997805;28;20201;-80
2022/11/28 11:17:06;;;;;;;3.47;2.70;;;;;;;13.42;61.42;94939.22;4993169;28;20588;-85
2022/11/28 11:19:35;;;;;;;3.00;2.70;;;;;;;13.46;61.67;94943.09;4992054;28;20196;-83
2022/11/28 11:22:05;;;;;;;3.30;3.00;;;;;;;13.43;61.46;94934.91;4993698;28;20237;-83
2022/11/28 11:24:32;;;;;;;3.50;3.20;;;;;;;13.49;61.37;94944.56;4999817;28;20193;-82
2022/11/28 11:27:14;;;;;;;3.30;3.00;;;;;;;13.46;61.24;94922.56;5013538;28;20220;-82
2022/11/28 11:29:42;;;;;;;3.03;2.47;;;;;;;13.59;61.11;94921.34;5014184;28;20444;-82
2022/11/28 11:32:20;;;;;;;2.70;2.50;;;;;;;13.67;60.77;94929.94;5013689;28;20179;-81
2022/11/28 11:34:48;;;;;;;3.77;2.97;;;;;;;13.72;60.74;94920.00;4995561;28;20196;-83
2022/11/28 11:37:21;;;;;;;3.00;2.80;;;;;;;13.88;60.52;94911.59;4991554;28;20197;-84
2022/11/28 11:39:50;;;;;;;2.83;2.63;;;;;;;14.04;60.15;94916.81;4989591;28;20193;-82
2022/11/28 11:42:21;;;;;;;3.07;2.77;;;;;;;14.22;59.80;94910.78;4991711;28;20212;-85
2022/11/28 11:44:50;;;;;;;3.33;3.03;;;;;;;14.30;59.48;94903.91;4992469;28;20656;-85
2022/11/28 11:47:17;;;;;;;2.77;2.57;;;;;;;14.48;59.13;94919.28;4991421;28;20201;-84
2022/11/28 11:49:47;;;;;;;3.17;2.80;;;;;;;14.58;58.83;94906.28;5007589;28;20193;-86
2022/11/28 11:52:18;;;;;;;2.87;2.67;;;;;;;14.67;58.77;94917.38;5001998;28;20235;-86
2022/11/28 11:54:58;;;;;;;5.70;2.80;;;;;;;14.72;58.51;94913.41;4991993;28;20197;-90